Novomar — 5BCT2 — position and weather

sailwx.info

Track history (hours):
 
Tides and Currents Weather Stations Pressure Air Temp Water Temp Dewpoint Dewpoint Depression Visibility Wind Speed Wind Dir Waves Ship Positions

Novomar

Last reported at 2016-May-11 08:15 UTC. Time now 2016-May-26 14:35 UTC.
Position N 55°41' E 015°35'.
Warning: this ship's position is 15 days out of date.

Length 89 m; draft 4.3 m.

Type: Ship (hazmat cat B). MMSI: 210974000.

Date/timePositionNaut miles runAvg speedWind from/ knotsBaromVisibWave heightAir tempDewpointWater temp
2016-May-11 08:15N 55°41' E 015°35'6 9.0
2016-May-11 07:34N 55°38' E 015°25'9 9.3
2016-May-11 06:34N 55°34' E 015°11'10 9.9
2016-May-11 05:34N 55°29' E 014°56'1010.1
2016-May-11 04:34N 55°24' E 014°40'1010.0
2016-May-11 03:34N 55°16' E 014°29'10 9.7
2016-May-11 02:33N 55°09' E 014°18'1010.1
2016-May-11 01:33N 55°01' E 014°06'1010.3
2016-May-11 00:33N 54°58' E 013°49'1010.3
2016-May-10 23:33N 54°55' E 013°32'1010.4
2016-May-10 22:33N 54°51' E 013°15'1410.0
2016-May-10 21:07N 54°46' E 012°51'5 9.8
2016-May-10 20:33N 54°44' E 012°43'10 9.8
2016-May-10 19:33N 54°38' E 012°29'10 9.4
2016-May-10 18:33N 54°32' E 012°17'9 8.9
2016-May-10 17:33N 54°24' E 012°08'9 9.1
2016-May-10 16:33N 54°24' E 011°53'9 9.0
2016-May-10 15:33N 54°27' E 011°38'9 9.4
2016-May-10 14:34N 54°31' E 011°23'9 9.1
2016-May-10 13:33N 54°35' E 011°09'9 9.0
2016-May-10 12:33N 54°34' E 010°53'10 9.6
2016-May-10 11:33N 54°33' E 010°37'10 9.8
2016-May-10 10:34N 54°30' E 010°21'9 9.0
2016-May-10 09:33N 54°23' E 010°11'3 2.6
2016-May-10 08:34N 54°22' E 010°07'35 6.9
2016-May-10 03:33N 54°02' E 009°18'6 5.8
2016-May-10 02:33N 53°57' E 009°14'5 4.8
2016-May-10 01:33N 53°54' E 009°09'2 1.8
2016-May-10 00:33N 53°53' E 009°06'1110.7
2016-May-09 23:33N 53°50' E 008°48'1212.1
2016-May-09 22:33N 53°58' E 008°32'1211.4
2016-May-09 21:33N 53°60' E 008°13'9 8.9
2016-May-09 20:33N 53°58' E 007°58'9 9.4
2016-May-09 19:33N 53°56' E 007°43'9 8.9
2016-May-09 18:33N 53°54' E 007°28'8 8.5
2016-May-09 17:33N 53°52' E 007°14'8 8.3
2016-May-09 16:33N 53°51' E 006°60'8 8.0
2016-May-09 15:33N 53°48' E 006°47'8 8.3
2016-May-09 14:34N 53°47' E 006°33'9 8.5
2016-May-09 13:33N 53°45' E 006°19'9 9.0
2016-May-09 12:33N 53°42' E 006°05'9 9.3
2016-May-09 11:33N 53°38' E 005°50'10 9.9
2016-May-09 10:33N 53°35' E 005°35'1010.3
2016-May-09 09:33N 53°32' E 005°18'1110.7
2016-May-09 08:32N 53°28' E 005°01'2411.3
2016-May-09 06:22N 53°11' E 004°31'1012.1
2016-May-09 05:32N 53°03' E 004°23'1111.3
2016-May-09 04:32N 52°53' E 004°14'1110.9
2016-May-09 03:33N 52°44' E 004°05'1010.3
2016-May-09 02:33N 52°36' E 003°53'9 9.4
2016-May-09 01:33N 52°30' E 003°42'69 8.4
2016-May-08 17:17N 51°38' E 002°27'811.0
2016-May-08 16:33N 51°32' E 002°18'1511.5
2016-May-08 15:16N 51°20' E 002°06'811.5
2016-May-08 14:33N 51°13' E 001°59'1312.9
2016-May-08 13:33N 51°05' E 001°43'1413.5
2016-May-08 12:31N 50°55' E 001°28'5510.9
2016-May-08 07:28N 50°24' E 000°16'9 9.7
2016-May-08 06:34N 50°21' E 000°03'9 9.0
2016-May-08 05:30N 50°19' W 000°12'8 8.2
2016-May-08 04:30N 50°17' W 000°24'10110.1
2016-May-07 18:33N 50°12' W 003°02'1111.4
2016-May-07 17:33N 50°12' W 003°19'1110.7
2016-May-07 16:33N 50°11' W 003°36'23 0.6
2016-May-06 04:29N 50°22' W 004°08'14 7.2
2016-May-06 02:33N 50°10' W 004°19'9 8.5
2016-May-06 01:33N 50°03' W 004°26'10 9.4
2016-May-06 00:28N 49°54' W 004°33'9 9.8
2016-May-05 23:32N 49°46' W 004°40'11 9.2
2016-May-05 22:23N 49°37' W 004°49'8 9.1
2016-May-05 21:32N 49°30' W 004°55'18 9.2
2016-May-05 19:32N 49°14' W 005°09'9 9.6
2016-May-05 18:33N 49°06' W 005°16'1010.0
2016-May-05 17:33N 48°57' W 005°23'1110.7
2016-May-05 16:33N 48°49' W 005°33'1111.2
2016-May-05 15:33N 48°39' W 005°41'1211.8
2016-May-05 14:33N 48°28' W 005°49'  
2016-May-02 22:32N 39°13' W 009°51'19 9.0
2016-May-02 20:23N 38°54' W 009°52'8 9.0
2016-May-02 19:33N 38°46' W 009°51'9 9.0
2016-May-02 18:33N 38°37' W 009°50'9 8.8
2016-May-02 17:33N 38°29' W 009°47'9 9.0
2016-May-02 16:33N 38°20' W 009°45'9 9.3
2016-May-02 15:33N 38°11' W 009°42'9 9.4
2016-May-02 14:33N 38°02' W 009°40'9 9.4
2016-May-02 13:33N 37°53' W 009°37'9 9.4
2016-May-02 12:33N 37°44' W 009°34'10 9.5
2016-May-02 11:32N 37°34' W 009°31'9 9.3
2016-May-02 10:33N 37°25' W 009°28'10 9.4
2016-May-02 09:32N 37°16' W 009°25'9 8.7
2016-May-02 08:32N 37°08' W 009°24'8 8.4
2016-May-02 07:32N 36°59' W 009°21'  
Track history (hours):
 
Tides and Currents Weather Stations Pressure Air Temp Water Temp Dewpoint Dewpoint Depression Visibility Wind Speed Wind Dir Waves Ship Positions

Novomar

Last reported at 2016-May-11 08:15 UTC. Time now 2016-May-26 14:35 UTC.
Position N 55°41' E 015°35'.
Warning: this ship's position is 15 days out of date.

Length 89 m; draft 4.3 m.

Type: Ship (hazmat cat B). MMSI: 210974000.

Date/timePositionNaut miles runAvg speedWind from/ knotsBaromVisibWave heightAir tempDewpointWater temp
2016-May-11 08:15N 55°41' E 015°35'6 9.0
2016-May-11 07:34N 55°38' E 015°25'9 9.3
2016-May-11 06:34N 55°34' E 015°11'10 9.9
2016-May-11 05:34N 55°29' E 014°56'1010.1
2016-May-11 04:34N 55°24' E 014°40'1010.0
2016-May-11 03:34N 55°16' E 014°29'10 9.7
2016-May-11 02:33N 55°09' E 014°18'1010.1
2016-May-11 01:33N 55°01' E 014°06'1010.3
2016-May-11 00:33N 54°58' E 013°49'1010.3
2016-May-10 23:33N 54°55' E 013°32'1010.4
2016-May-10 22:33N 54°51' E 013°15'1410.0
2016-May-10 21:07N 54°46' E 012°51'5 9.8
2016-May-10 20:33N 54°44' E 012°43'10 9.8
2016-May-10 19:33N 54°38' E 012°29'10 9.4
2016-May-10 18:33N 54°32' E 012°17'9 8.9
2016-May-10 17:33N 54°24' E 012°08'9 9.1
2016-May-10 16:33N 54°24' E 011°53'9 9.0
2016-May-10 15:33N 54°27' E 011°38'9 9.4
2016-May-10 14:34N 54°31' E 011°23'9 9.1
2016-May-10 13:33N 54°35' E 011°09'9 9.0
2016-May-10 12:33N 54°34' E 010°53'10 9.6
2016-May-10 11:33N 54°33' E 010°37'10 9.8
2016-May-10 10:34N 54°30' E 010°21'9 9.0
2016-May-10 09:33N 54°23' E 010°11'3 2.6
2016-May-10 08:34N 54°22' E 010°07'35 6.9
2016-May-10 03:33N 54°02' E 009°18'6 5.8
2016-May-10 02:33N 53°57' E 009°14'5 4.8
2016-May-10 01:33N 53°54' E 009°09'2 1.8
2016-May-10 00:33N 53°53' E 009°06'1110.7
2016-May-09 23:33N 53°50' E 008°48'1212.1
2016-May-09 22:33N 53°58' E 008°32'1211.4
2016-May-09 21:33N 53°60' E 008°13'9 8.9
2016-May-09 20:33N 53°58' E 007°58'9 9.4
2016-May-09 19:33N 53°56' E 007°43'9 8.9
2016-May-09 18:33N 53°54' E 007°28'8 8.5
2016-May-09 17:33N 53°52' E 007°14'8 8.3
2016-May-09 16:33N 53°51' E 006°60'8 8.0
2016-May-09 15:33N 53°48' E 006°47'8 8.3
2016-May-09 14:34N 53°47' E 006°33'9 8.5
2016-May-09 13:33N 53°45' E 006°19'9 9.0
2016-May-09 12:33N 53°42' E 006°05'9 9.3
2016-May-09 11:33N 53°38' E 005°50'10 9.9
2016-May-09 10:33N 53°35' E 005°35'1010.3
2016-May-09 09:33N 53°32' E 005°18'1110.7
2016-May-09 08:32N 53°28' E 005°01'2411.3
2016-May-09 06:22N 53°11' E 004°31'1012.1
2016-May-09 05:32N 53°03' E 004°23'1111.3
2016-May-09 04:32N 52°53' E 004°14'1110.9
2016-May-09 03:33N 52°44' E 004°05'1010.3
2016-May-09 02:33N 52°36' E 003°53'9 9.4
2016-May-09 01:33N 52°30' E 003°42'69 8.4
2016-May-08 17:17N 51°38' E 002°27'811.0
2016-May-08 16:33N 51°32' E 002°18'1511.5
2016-May-08 15:16N 51°20' E 002°06'811.5
2016-May-08 14:33N 51°13' E 001°59'1312.9
2016-May-08 13:33N 51°05' E 001°43'1413.5
2016-May-08 12:31N 50°55' E 001°28'5510.9
2016-May-08 07:28N 50°24' E 000°16'9 9.7
2016-May-08 06:34N 50°21' E 000°03'9 9.0
2016-May-08 05:30N 50°19' W 000°12'8 8.2
2016-May-08 04:30N 50°17' W 000°24'10110.1
2016-May-07 18:33N 50°12' W 003°02'1111.4
2016-May-07 17:33N 50°12' W 003°19'1110.7
2016-May-07 16:33N 50°11' W 003°36'23 0.6
2016-May-06 04:29N 50°22' W 004°08'14 7.2
2016-May-06 02:33N 50°10' W 004°19'9 8.5
2016-May-06 01:33N 50°03' W 004°26'10 9.4
2016-May-06 00:28N 49°54' W 004°33'9 9.8
2016-May-05 23:32N 49°46' W 004°40'11 9.2
2016-May-05 22:23N 49°37' W 004°49'8 9.1
2016-May-05 21:32N 49°30' W 004°55'18 9.2
2016-May-05 19:32N 49°14' W 005°09'9 9.6
2016-May-05 18:33N 49°06' W 005°16'1010.0
2016-May-05 17:33N 48°57' W 005°23'1110.7
2016-May-05 16:33N 48°49' W 005°33'1111.2
2016-May-05 15:33N 48°39' W 005°41'1211.8
2016-May-05 14:33N 48°28' W 005°49'  
2016-May-02 22:32N 39°13' W 009°51'19 9.0
2016-May-02 20:23N 38°54' W 009°52'8 9.0
2016-May-02 19:33N 38°46' W 009°51'9 9.0
2016-May-02 18:33N 38°37' W 009°50'9 8.8
2016-May-02 17:33N 38°29' W 009°47'9 9.0
2016-May-02 16:33N 38°20' W 009°45'9 9.3
2016-May-02 15:33N 38°11' W 009°42'9 9.4
2016-May-02 14:33N 38°02' W 009°40'9 9.4
2016-May-02 13:33N 37°53' W 009°37'9 9.4
2016-May-02 12:33N 37°44' W 009°34'10 9.5
2016-May-02 11:32N 37°34' W 009°31'9 9.3
2016-May-02 10:33N 37°25' W 009°28'10 9.4
2016-May-02 09:32N 37°16' W 009°25'9 8.7
2016-May-02 08:32N 37°08' W 009°24'8 8.4
2016-May-02 07:32N 36°59' W 009°21'  

Dump ship's entire track history